Time;durP1;ratioP1;P1;durP2;ratioP2;P2;SDS_P1;SDS_P2;PMS_P1;PMS_P2;Temp;Humidity;BMP_temperature;BMP_pressure;BME280_temperature;BME280_humidity;BME280_pressure;Samples;Min_cycle;Max_cycle;Signal;HPM_P1;HPM_P2
2022/12/23 00:02:33;;;;;;;1.50;0.50;;;12.10;99.90;;;;;;10141109;28;20422;-60
2022/12/23 00:07:23;;;;;;;0.60;0.57;;;12.00;99.90;;;;;;10122676;28;20032;-63
2022/12/23 00:17:23;;;;;;;2.58;0.60;;;12.10;99.90;;;;;;10140601;28;20566;-61
2022/12/23 00:22:14;;;;;;;1.27;0.50;;;12.20;99.90;;;;;;10131431;28;20202;-66
2022/12/23 00:27:04;;;;;;;2.63;0.65;;;12.20;99.90;;;;;;10135285;28;20123;-62
2022/12/23 00:31:55;;;;;;;3.30;0.73;;;12.30;99.90;;;;;;10139091;28;20024;-59
2022/12/23 00:36:45;;;;;;;1.08;0.32;;;12.40;99.90;;;;;;10134806;28;20024;-59
2022/12/23 00:46:45;;;;;;;0.50;0.35;;;12.50;99.90;;;;;;10137461;28;20213;-60
2022/12/23 00:51:36;;;;;;;0.30;0.30;;;12.50;99.90;;;;;;10138539;28;20186;-60
2022/12/23 00:56:27;;;;;;;0.20;0.20;;;12.60;99.90;;;;;;10139454;28;20021;-61
2022/12/23 01:06:27;;;;;;;0.65;0.50;;;12.70;99.90;;;;;;10139015;28;20447;-59
2022/12/23 01:11:17;;;;;;;0.65;0.35;;;12.70;99.90;;;;;;10138489;28;20035;-60
2022/12/23 01:16:10;;;;;;;1.35;0.28;;;12.80;99.90;;;;;;10138423;28;20020;-63
2022/12/23 01:21:06;;;;;;;0.55;0.30;;;12.80;99.90;;;;;;10138406;28;20107;-60
2022/12/23 01:25:58;;;;;;;1.85;0.30;;;12.80;99.90;;;;;;10132703;28;20052;-60
2022/12/23 01:30:48;;;;;;;0.75;0.70;;;12.80;99.90;;;;;;10137201;28;20039;-60
2022/12/23 01:35:39;;;;;;;0.30;0.30;;;12.80;99.90;;;;;;10138026;28;20402;-59
2022/12/23 01:40:34;;;;;;;1.58;0.40;;;12.90;99.90;;;;;;10137908;28;20017;-59
2022/12/23 01:45:29;;;;;;;0.75;0.38;;;12.80;99.90;;;;;;10134137;28;20127;-60
2022/12/23 01:50:31;;;;;;;0.75;0.38;;;12.90;99.90;;;;;;10135924;28;20029;-62
2022/12/23 01:55:25;;;;;;;0.65;0.40;;;12.90;99.90;;;;;;10137640;28;20029;-65
2022/12/23 02:05:30;;;;;;;0.38;0.30;;;13.00;99.90;;;;;;10107808;28;20058;-60
2022/12/23 02:10:28;;;;;;;1.45;0.38;;;13.00;99.90;;;;;;10135719;28;20542;-60
2022/12/23 02:20:57;;;;;;;0.17;0.10;;;13.20;99.90;;;;;;10128416;28;20035;-68
2022/12/23 02:26:00;;;;;;;1.02;0.30;;;13.30;99.90;;;;;;10115392;28;20407;-63
2022/12/23 02:31:13;;;;;;;0.10;0.10;;;13.30;99.90;;;;;;10136062;28;20017;-59
2022/12/23 02:36:31;;;;;;;0.15;0.10;;;13.30;99.90;;;;;;10133396;28;20075;-59
2022/12/23 02:41:47;;;;;;;0.55;0.10;;;13.30;99.90;;;;;;10141095;28;20136;-61
2022/12/23 02:46:46;;;;;;;0.30;0.10;;;13.30;99.90;;;;;;10129293;28;20044;-62
2022/12/23 02:51:42;;;;;;;0.28;0.10;;;13.40;99.90;;;;;;10126670;28;20237;-61
2022/12/23 02:56:36;;;;;;;0.30;0.20;;;13.40;99.90;;;;;;10133671;28;20056;-59
2022/12/23 03:01:29;;;;;;;0.08;0.08;;;13.40;99.90;;;;;;10134818;28;20265;-62
2022/12/23 03:06:33;;;;;;;0.50;0.30;;;13.50;99.90;;;;;;10134791;28;20044;-63
2022/12/23 03:11:59;;;;;;;0.50;0.28;;;13.50;99.90;;;;;;10130968;28;20025;-65
2022/12/23 03:17:22;;;;;;;0.35;0.35;;;13.60;99.90;;;;;;10135160;28;20070;-64
2022/12/23 03:22:34;;;;;;;0.50;0.30;;;13.60;99.90;;;;;;10134676;28;20032;-67
2022/12/23 03:27:48;;;;;;;0.80;0.40;;;13.50;99.90;;;;;;10124536;28;20110;-66
2022/12/23 03:32:46;;;;;;;0.03;0.00;;;13.50;99.90;;;;;;10131872;28;20383;-60
2022/12/23 03:37:40;;;;;;;0.25;0.10;;;13.60;99.90;;;;;;10133661;28;20020;-60
2022/12/23 03:42:40;;;;;;;0.50;0.30;;;13.60;99.90;;;;;;10137994;28;20028;-62
2022/12/23 03:47:36;;;;;;;0.30;0.28;;;13.60;99.90;;;;;;10140033;28;20023;-60
2022/12/23 03:52:32;;;;;;;0.22;0.17;;;13.60;99.90;;;;;;10135826;28;20091;-62
2022/12/23 03:57:33;;;;;;;0.20;0.20;;;13.70;99.90;;;;;;10142441;28;20031;-60
2022/12/23 04:02:32;;;;;;;1.00;0.35;;;13.60;99.90;;;;;;10135377;28;20036;-66
2022/12/23 04:07:50;;;;;;;0.30;0.30;;;13.70;99.90;;;;;;10125549;28;20044;-59
2022/12/23 04:12:41;;;;;;;0.63;0.20;;;13.70;99.90;;;;;;10132970;28;20361;-60
2022/12/23 04:17:32;;;;;;;0.30;0.30;;;13.60;99.90;;;;;;10132922;28;20035;-64
2022/12/23 04:22:23;;;;;;;0.20;0.10;;;13.60;99.90;;;;;;10134485;28;20050;-62
2022/12/23 04:27:15;;;;;;;0.20;0.20;;;13.60;99.90;;;;;;10135474;28;20451;-62
2022/12/23 04:32:06;;;;;;;0.40;0.20;;;13.50;99.90;;;;;;10134318;28;20021;-60
2022/12/23 04:36:56;;;;;;;0.35;0.10;;;13.60;99.90;;;;;;10140709;28;20034;-63
2022/12/23 04:41:47;;;;;;;0.20;0.20;;;13.60;99.90;;;;;;10140074;28;20107;-60
2022/12/23 04:46:38;;;;;;;0.30;0.30;;;13.60;99.90;;;;;;10139996;28;20119;-59
2022/12/23 04:51:29;;;;;;;1.77;0.40;;;13.60;99.90;;;;;;10140238;28;20142;-59
2022/12/23 04:56:20;;;;;;;0.35;0.30;;;13.60;99.90;;;;;;10138937;28;20044;-61
2022/12/23 05:01:11;;;;;;;0.30;0.20;;;13.60;99.90;;;;;;10137833;28;20056;-64
2022/12/23 05:06:02;;;;;;;1.00;0.32;;;13.60;99.90;;;;;;10139231;28;20067;-59
2022/12/23 05:10:53;;;;;;;0.25;0.20;;;13.60;99.90;;;;;;10139047;28;20025;-60
2022/12/23 05:15:44;;;;;;;0.80;0.30;;;13.60;99.90;;;;;;10133092;28;20046;-59
2022/12/23 05:20:35;;;;;;;0.20;0.20;;;13.60;99.90;;;;;;10138503;28;20055;-59
2022/12/23 05:25:26;;;;;;;1.75;0.35;;;13.50;99.90;;;;;;10135613;28;20533;-59
2022/12/23 05:30:16;;;;;;;0.57;0.30;;;13.50;99.90;;;;;;10132282;28;20093;-61
2022/12/23 05:35:07;;;;;;;3.20;1.38;;;13.40;99.90;;;;;;10138196;28;20509;-61
2022/12/23 05:39:58;;;;;;;0.20;0.20;;;13.30;99.90;;;;;;10138866;28;20302;-59
2022/12/23 05:44:49;;;;;;;0.70;0.28;;;13.30;99.90;;;;;;10136995;28;20035;-65
2022/12/23 05:49:39;;;;;;;0.47;0.40;;;13.30;99.90;;;;;;10136628;28;20025;-64
2022/12/23 05:54:30;;;;;;;0.60;0.30;;;13.30;99.90;;;;;;10134793;28;20032;-62
2022/12/23 05:59:20;;;;;;;0.20;0.20;;;13.20;99.90;;;;;;10130624;28;20473;-68
2022/12/23 06:04:11;;;;;;;0.55;0.28;;;13.20;99.90;;;;;;10112500;28;20051;-66
2022/12/23 06:09:02;;;;;;;0.73;0.73;;;13.20;99.90;;;;;;10126612;28;20041;-63
2022/12/23 06:13:53;;;;;;;0.57;0.30;;;13.20;99.90;;;;;;10131394;28;20028;-63
2022/12/23 06:18:43;;;;;;;2.85;0.40;;;13.10;99.90;;;;;;10136185;28;20033;-67
2022/12/23 06:23:34;;;;;;;3.50;0.60;;;13.00;99.90;;;;;;10135189;28;20041;-61
2022/12/23 06:28:24;;;;;;;0.90;0.45;;;13.10;99.90;;;;;;10132170;28;20482;-63
2022/12/23 06:33:18;;;;;;;1.55;0.43;;;13.10;99.90;;;;;;10136536;28;20032;-61
2022/12/23 06:38:09;;;;;;;0.52;0.30;;;13.10;99.90;;;;;;10135347;28;20067;-63
2022/12/23 06:43:00;;;;;;;0.63;0.40;;;13.00;99.90;;;;;;10135808;28;20040;-64
2022/12/23 06:47:50;;;;;;;3.05;1.10;;;13.10;99.90;;;;;;10135641;28;20380;-59
2022/12/23 06:52:41;;;;;;;0.57;0.50;;;13.00;99.90;;;;;;10133502;28;20490;-63
2022/12/23 06:57:32;;;;;;;0.52;0.45;;;13.10;99.90;;;;;;10137354;28;20477;-62
2022/12/23 07:02:22;;;;;;;0.55;0.38;;;13.00;99.90;;;;;;10135155;28;20122;-63
2022/12/23 07:07:13;;;;;;;0.70;0.50;;;13.00;99.90;;;;;;10123654;28;20471;-65
2022/12/23 07:12:04;;;;;;;0.32;0.30;;;13.10;99.90;;;;;;10136039;28;20039;-59
2022/12/23 07:16:54;;;;;;;0.68;0.50;;;13.10;99.90;;;;;;10138245;28;20487;-65
2022/12/23 07:21:45;;;;;;;2.08;0.75;;;13.10;99.90;;;;;;10138084;28;20029;-62
2022/12/23 07:26:35;;;;;;;2.60;1.23;;;13.10;99.90;;;;;;10142897;28;20086;-60
2022/12/23 07:31:27;;;;;;;0.93;0.50;;;13.10;99.90;;;;;;10142880;28;20372;-64
2022/12/23 07:36:17;;;;;;;2.08;0.52;;;13.20;99.90;;;;;;10138265;28;20040;-61
2022/12/23 07:41:08;;;;;;;2.08;0.70;;;13.30;99.90;;;;;;10141563;28;20032;-59
2022/12/23 07:46:05;;;;;;;4.30;1.20;;;13.30;99.90;;;;;;10141656;28;20036;-60
2022/12/23 07:51:03;;;;;;;7.28;3.53;;;13.30;99.90;;;;;;10141315;28;20043;-60
2022/12/23 07:55:54;;;;;;;1.80;1.20;;;13.30;99.90;;;;;;10142063;28;20024;-68
2022/12/23 08:00:45;;;;;;;1.88;0.85;;;13.40;99.90;;;;;;10141215;28;20048;-65
2022/12/23 08:05:36;;;;;;;0.95;0.70;;;13.40;99.90;;;;;;10140192;28;20039;-61
2022/12/23 08:10:28;;;;;;;0.90;0.73;;;13.40;99.90;;;;;;10128003;28;20066;-64
2022/12/23 08:15:18;;;;;;;1.27;1.02;;;13.40;99.90;;;;;;10137510;28;20028;-62
2022/12/23 08:20:09;;;;;;;2.30;1.38;;;13.40;99.90;;;;;;10136919;28;20558;-67
2022/12/23 08:25:00;;;;;;;2.40;1.17;;;13.40;99.90;;;;;;10137159;28;20118;-60
2022/12/23 08:29:51;;;;;;;2.53;1.95;;;13.40;99.90;;;;;;10137272;28;20560;-60
2022/12/23 08:34:41;;;;;;;3.08;1.50;;;13.40;99.90;;;;;;10137725;28;20525;-59
2022/12/23 08:39:32;;;;;;;1.30;1.20;;;13.50;99.90;;;;;;10136792;28;20029;-60
2022/12/23 08:44:25;;;;;;;2.05;1.10;;;13.50;99.90;;;;;;10135457;28;20127;-60
2022/12/23 08:49:16;;;;;;;1.65;1.20;;;13.60;99.90;;;;;;10139270;28;20047;-60
2022/12/23 08:54:07;;;;;;;1.98;1.02;;;13.60;99.90;;;;;;10138767;28;20123;-59
2022/12/23 08:58:58;;;;;;;2.55;1.70;;;13.70;99.90;;;;;;10139863;28;20495;-60
2022/12/23 09:03:49;;;;;;;1.73;1.20;;;13.60;99.90;;;;;;10137861;28;20086;-59
2022/12/23 09:08:40;;;;;;;1.58;1.25;;;13.60;99.90;;;;;;10129387;28;20060;-59
2022/12/23 09:13:31;;;;;;;1.50;0.88;;;13.70;99.90;;;;;;10136781;28;20040;-60
2022/12/23 09:18:22;;;;;;;1.13;1.02;;;13.90;99.90;;;;;;10138102;28;20174;-59
2022/12/23 09:23:13;;;;;;;1.60;1.00;;;13.90;99.90;;;;;;10137873;28;20036;-67
2022/12/23 09:28:05;;;;;;;1.70;0.88;;;13.80;99.90;;;;;;10134971;28;20034;-61
2022/12/23 09:32:56;;;;;;;1.67;1.08;;;13.80;99.90;;;;;;10138767;28;20025;-59
2022/12/23 09:37:46;;;;;;;1.95;1.05;;;13.80;99.90;;;;;;10152961;28;20043;-57
2022/12/23 09:43:05;;;;;;;4.57;1.15;;;13.70;99.90;;;;;;10128900;28;20059;-60
2022/12/23 09:47:56;;;;;;;1.27;0.90;;;13.70;99.90;;;;;;10136019;28;20102;-64
2022/12/23 09:52:57;;;;;;;2.28;1.00;;;13.70;99.90;;;;;;10138182;28;20028;-69
2022/12/23 09:57:59;;;;;;;1.42;0.90;;;13.70;99.90;;;;;;10128192;28;20033;-65
2022/12/23 10:03:12;;;;;;;1.67;0.77;;;13.80;99.90;;;;;;10134461;28;20420;-70
2022/12/23 10:08:23;;;;;;;0.82;0.57;;;13.80;99.90;;;;;;10126901;28;20021;-60
2022/12/23 10:13:28;;;;;;;0.73;0.68;;;13.80;99.90;;;;;;10130049;28;20060;-55
2022/12/23 10:18:34;;;;;;;1.35;0.52;;;13.70;99.90;;;;;;10133867;28;20394;-63
2022/12/23 10:23:35;;;;;;;0.60;0.57;;;13.70;99.90;;;;;;10132988;28;20083;-62
2022/12/23 10:28:26;;;;;;;0.60;0.43;;;13.80;99.90;;;;;;10132462;28;20036;-60
2022/12/23 10:33:23;;;;;;;1.40;0.50;;;13.70;99.90;;;;;;10135996;28;20428;-64
2022/12/23 10:38:40;;;;;;;1.20;0.73;;;13.80;99.90;;;;;;10127169;28;20111;-61
2022/12/23 10:43:56;;;;;;;0.75;0.73;;;13.80;99.90;;;;;;10136006;28;20354;-67
2022/12/23 10:49:24;;;;;;;3.80;1.20;;;13.80;99.90;;;;;;10135066;28;20036;-60
2022/12/23 10:54:33;;;;;;;1.65;1.30;;;13.80;99.90;;;;;;10145178;28;20016;-58
2022/12/23 10:59:30;;;;;;;0.88;0.60;;;13.80;99.90;;;;;;10144616;28;20546;-57
2022/12/23 11:04:36;;;;;;;1.55;1.02;;;13.80;99.90;;;;;;10149302;28;20025;-58
2022/12/23 11:09:36;;;;;;;1.75;0.75;;;13.80;99.90;;;;;;10135353;28;20105;-71
2022/12/23 11:14:32;;;;;;;1.75;0.90;;;13.80;99.90;;;;;;10148676;28;20027;-61
2022/12/23 11:19:23;;;;;;;4.10;1.45;;;13.80;99.90;;;;;;10146860;28;20035;-66
2022/12/23 11:24:18;;;;;;;1.70;0.90;;;13.80;99.90;;;;;;10148009;28;20440;-63
2022/12/23 11:29:16;;;;;;;0.90;0.68;;;13.90;99.90;;;;;;10148305;28;20028;-61
2022/12/23 11:34:15;;;;;;;1.70;1.02;;;13.90;99.90;;;;;;10140433;28;20032;-63
2022/12/23 11:39:09;;;;;;;2.40;1.35;;;13.80;99.90;;;;;;10148653;28;20058;-67
2022/12/23 11:44:04;;;;;;;2.63;0.85;;;13.90;99.90;;;;;;10147650;28;20040;-55
2022/12/23 11:49:17;;;;;;;2.28;1.10;;;13.90;99.90;;;;;;10148393;28;20036;-60
2022/12/23 11:54:16;;;;;;;3.05;1.00;;;13.90;99.90;;;;;;10147612;28;20036;-63
2022/12/23 11:59:25;;;;;;;2.00;1.13;;;13.90;99.90;;;;;;10148251;28;20424;-56
2022/12/23 12:04:21;;;;;;;2.90;1.00;;;13.90;99.90;;;;;;10128228;28;20382;-59
2022/12/23 12:09:13;;;;;;;2.28;1.45;;;13.80;99.90;;;;;;10112248;28;20036;-63
2022/12/23 12:14:07;;;;;;;2.58;1.80;;;13.90;99.90;;;;;;10132397;28;20132;-62
2022/12/23 12:19:34;;;;;;;5.15;2.00;;;13.90;99.90;;;;;;10130942;28;20032;-59
2022/12/23 12:24:39;;;;;;;1.40;1.02;;;13.90;99.90;;;;;;10122027;28;20478;-66
2022/12/23 12:29:36;;;;;;;1.50;1.00;;;13.90;99.90;;;;;;10140562;28;20016;-69
2022/12/23 12:34:41;;;;;;;1.50;1.00;;;14.00;99.90;;;;;;10141122;28;20028;-66
2022/12/23 12:39:40;;;;;;;1.08;0.82;;;14.00;99.90;;;;;;10140956;28;20085;-68
2022/12/23 12:44:42;;;;;;;2.45;1.00;;;14.00;99.90;;;;;;10126720;28;20127;-68
2022/12/23 12:49:46;;;;;;;1.90;1.10;;;14.00;99.90;;;;;;10136227;28;20509;-64
2022/12/23 12:54:40;;;;;;;2.20;1.00;;;14.00;99.90;;;;;;10139172;28;20060;-65
2022/12/23 12:59:37;;;;;;;3.37;0.90;;;14.00;99.90;;;;;;10137214;28;20305;-64
2022/12/23 13:04:43;;;;;;;1.52;0.75;;;14.10;99.90;;;;;;10139185;28;20036;-59
2022/12/23 13:09:51;;;;;;;2.28;0.95;;;14.10;99.90;;;;;;10126142;28;20020;-58
2022/12/23 13:15:23;;;;;;;1.85;0.90;;;14.10;99.90;;;;;;10135783;28;20029;-61
2022/12/23 13:21:06;;;;;;;1.08;0.70;;;14.10;99.90;;;;;;10136244;28;20570;-63
2022/12/23 13:26:07;;;;;;;1.05;0.52;;;14.10;99.90;;;;;;10122196;28;20053;-66
2022/12/23 13:31:14;;;;;;;2.45;0.80;;;14.10;99.90;;;;;;10137817;28;20020;-61
2022/12/23 13:36:25;;;;;;;1.38;0.82;;;14.10;99.90;;;;;;10138213;28;20045;-62
2022/12/23 13:41:38;;;;;;;1.15;0.60;;;14.20;99.90;;;;;;10126656;28;20103;-58
2022/12/23 13:46:48;;;;;;;2.70;0.73;;;14.30;99.90;;;;;;10128873;28;20505;-58
2022/12/23 13:51:50;;;;;;;1.83;1.00;;;14.30;99.90;;;;;;10130346;28;20052;-57
2022/12/23 13:57:00;;;;;;;2.03;1.10;;;14.40;99.90;;;;;;10131312;28;20024;-61
2022/12/23 14:01:51;;;;;;;0.55;0.52;;;14.40;99.90;;;;;;10132219;28;20049;-57
2022/12/23 14:06:43;;;;;;;2.88;1.30;;;14.40;99.90;;;;;;10137387;28;20040;-57
2022/12/23 14:11:34;;;;;;;1.15;0.75;;;14.50;99.90;;;;;;10135503;28;20401;-59
2022/12/23 14:16:43;;;;;;;1.95;0.65;;;14.40;99.90;;;;;;10137686;28;20027;-58
2022/12/23 14:21:42;;;;;;;0.93;0.70;;;14.50;99.90;;;;;;10135955;28;20107;-66
2022/12/23 14:26:46;;;;;;;1.02;0.65;;;14.50;99.90;;;;;;10135571;28;20129;-65
2022/12/23 14:31:43;;;;;;;2.08;0.85;;;14.50;99.90;;;;;;10130734;28;20498;-62
2022/12/23 14:36:34;;;;;;;3.10;1.08;;;14.50;99.90;;;;;;10133923;28;20052;-58
2022/12/23 14:41:51;;;;;;;1.67;1.42;;;14.60;99.90;;;;;;10136300;28;20025;-65
2022/12/23 14:46:42;;;;;;;0.32;0.32;;;14.60;99.90;;;;;;10117684;28;20089;-62
2022/12/23 14:51:38;;;;;;;0.77;0.50;;;14.90;99.90;;;;;;10133255;28;20445;-61
2022/12/23 14:56:38;;;;;;;1.88;0.60;;;15.00;99.90;;;;;;10136150;28;20100;-57
2022/12/23 15:01:39;;;;;;;0.80;0.40;;;15.10;99.90;;;;;;10135693;28;20041;-62
2022/12/23 15:06:49;;;;;;;1.45;1.08;;;15.20;99.90;;;;;;10134218;28;20068;-59
2022/12/23 15:11:40;;;;;;;0.68;0.40;;;15.20;99.90;;;;;;10123054;28;20044;-56
2022/12/23 15:16:38;;;;;;;0.90;0.55;;;15.10;99.90;;;;;;10135594;28;20363;-56
2022/12/23 15:21:32;;;;;;;0.70;0.40;;;15.20;99.90;;;;;;10133345;28;20070;-60
2022/12/23 15:26:27;;;;;;;1.35;0.60;;;15.10;99.90;;;;;;10135887;28;20038;-70
2022/12/23 15:31:46;;;;;;;0.73;0.40;;;15.00;99.90;;;;;;10135112;28;20023;-61
2022/12/23 15:36:39;;;;;;;0.52;0.50;;;15.00;99.90;;;;;;10129232;28;20044;-69
2022/12/23 15:41:29;;;;;;;0.45;0.30;;;15.10;99.90;;;;;;10142897;28;20082;-66
2022/12/23 15:46:22;;;;;;;0.63;0.50;;;15.20;99.90;;;;;;10140504;28;20461;-70
2022/12/23 15:51:27;;;;;;;0.85;0.80;;;15.30;99.90;;;;;;10142028;28;20455;-66
2022/12/23 15:56:30;;;;;;;2.30;0.50;;;15.40;99.90;;;;;;10142166;28;20032;-57
2022/12/23 16:01:22;;;;;;;0.60;0.50;;;15.40;99.90;;;;;;10141287;28;20049;-66
2022/12/23 16:06:15;;;;;;;0.30;0.30;;;15.40;99.90;;;;;;10141601;28;20036;-68
2022/12/23 16:11:16;;;;;;;0.73;0.40;;;15.50;99.90;;;;;;10127505;28;20020;-65
2022/12/23 16:16:30;;;;;;;0.32;0.30;;;15.60;99.90;;;;;;10139109;28;20024;-69
2022/12/23 16:21:26;;;;;;;0.60;0.30;;;15.60;99.90;;;;;;10140766;28;20181;-64
2022/12/23 16:26:18;;;;;;;0.55;0.38;;;15.70;99.90;;;;;;10142561;28;20056;-66
2022/12/23 16:31:09;;;;;;;0.70;0.55;;;15.70;99.90;;;;;;10142865;28;20097;-60
2022/12/23 16:36:24;;;;;;;0.55;0.38;;;15.70;99.90;;;;;;10141549;28;20037;-65
2022/12/23 16:41:15;;;;;;;0.85;0.30;;;15.80;99.90;;;;;;10130080;28;20039;-59
2022/12/23 16:46:07;;;;;;;0.88;0.60;;;15.70;99.90;;;;;;10138733;28;20379;-60
2022/12/23 16:50:59;;;;;;;1.98;0.43;;;15.80;99.90;;;;;;10139604;28;20043;-59
2022/12/23 16:55:49;;;;;;;1.58;0.90;;;15.70;99.90;;;;;;10139992;28;20055;-70
2022/12/23 17:00:41;;;;;;;0.88;0.45;;;15.50;99.90;;;;;;10137433;28;20062;-68
2022/12/23 17:05:32;;;;;;;2.72;0.70;;;15.60;99.90;;;;;;10130085;28;20258;-66
2022/12/23 17:10:23;;;;;;;0.90;0.50;;;15.70;99.90;;;;;;10125186;28;20547;-64
2022/12/23 17:15:21;;;;;;;0.63;0.32;;;15.80;99.90;;;;;;10154096;28;20073;-67
2022/12/23 17:20:12;;;;;;;0.88;0.30;;;15.90;99.90;;;;;;10136851;28;20079;-58
2022/12/23 17:25:03;;;;;;;1.52;0.70;;;15.90;99.90;;;;;;10138634;28;20068;-62
2022/12/23 17:29:54;;;;;;;0.30;0.30;;;15.90;99.90;;;;;;10138475;28;20021;-62
2022/12/23 17:34:44;;;;;;;0.68;0.35;;;15.90;99.90;;;;;;10138255;28;20517;-57
2022/12/23 17:39:35;;;;;;;0.30;0.30;;;15.90;99.90;;;;;;10136068;28;20043;-60
2022/12/23 17:44:25;;;;;;;2.53;0.70;;;15.90;99.90;;;;;;10137512;28;20068;-59
2022/12/23 17:49:16;;;;;;;2.08;1.20;;;15.50;99.90;;;;;;10137643;28;20012;-61
2022/12/23 17:54:22;;;;;;;1.92;0.80;;;14.80;99.90;;;;;;10137278;28;20024;-62
2022/12/23 17:59:13;;;;;;;0.95;0.60;;;14.40;99.90;;;;;;10137501;28;20128;-61
2022/12/23 18:04:04;;;;;;;1.50;0.80;;;14.30;99.90;;;;;;10136516;28;20123;-63
2022/12/23 18:08:57;;;;;;;2.33;0.80;;;14.20;99.90;;;;;;10123642;28;20402;-60
2022/12/23 18:13:50;;;;;;;0.75;0.60;;;14.10;99.90;;;;;;10137021;28;20032;-61
2022/12/23 18:18:41;;;;;;;2.22;0.73;;;14.00;99.90;;;;;;10137114;28;20128;-64
2022/12/23 18:23:33;;;;;;;1.27;0.63;;;13.90;99.90;;;;;;10135250;28;20115;-61
2022/12/23 18:28:24;;;;;;;1.08;0.68;;;13.90;99.90;;;;;;10135464;28;20023;-59
2022/12/23 18:33:15;;;;;;;1.55;0.80;;;14.00;99.90;;;;;;10137540;28;20034;-63
2022/12/23 18:38:05;;;;;;;2.65;0.80;;;14.10;99.90;;;;;;10136297;28;20017;-57
2022/12/23 18:42:56;;;;;;;5.57;1.67;;;14.20;99.90;;;;;;10136342;28;20064;-61
2022/12/23 18:47:47;;;;;;;0.70;0.55;;;14.30;99.90;;;;;;10135302;28;20586;-65
2022/12/23 18:52:39;;;;;;;1.77;0.60;;;14.40;99.90;;;;;;10133869;28;20040;-67
2022/12/23 18:57:29;;;;;;;1.40;0.57;;;14.40;99.90;;;;;;10136067;28;20143;-72
2022/12/23 19:02:20;;;;;;;0.90;0.70;;;14.70;99.90;;;;;;10136348;28;20428;-72
2022/12/23 19:07:11;;;;;;;1.13;0.60;;;14.90;99.90;;;;;;10128091;28;20028;-72
2022/12/23 19:12:02;;;;;;;0.45;0.35;;;15.00;99.90;;;;;;10123900;28;20085;-66
2022/12/23 19:16:53;;;;;;;1.52;0.63;;;15.10;99.90;;;;;;10144389;28;20025;-67
2022/12/23 19:21:43;;;;;;;0.68;0.50;;;15.10;99.90;;;;;;10135499;28;20112;-68
2022/12/23 19:26:34;;;;;;;3.05;1.30;;;15.30;99.90;;;;;;10124891;28;20041;-64
2022/12/23 19:31:26;;;;;;;1.38;0.50;;;15.30;99.90;;;;;;10134719;28;20148;-61
2022/12/23 19:36:21;;;;;;;1.33;0.50;;;15.30;99.90;;;;;;10141560;28;20579;-68
2022/12/23 19:41:12;;;;;;;1.02;0.65;;;15.20;99.90;;;;;;10139017;28;20068;-64
2022/12/23 19:46:06;;;;;;;1.27;1.05;;;15.20;99.90;;;;;;10134817;28;20091;-68
2022/12/23 19:51:06;;;;;;;0.57;0.50;;;15.20;99.90;;;;;;10141550;28;20090;-69
2022/12/23 19:56:12;;;;;;;4.07;1.20;;;15.20;99.90;;;;;;10135082;28;20268;-69
2022/12/23 20:01:10;;;;;;;4.13;0.70;;;15.10;99.90;;;;;;10141111;28;20149;-71
2022/12/23 20:06:01;;;;;;;1.40;0.70;;;15.10;99.90;;;;;;10141988;28;20036;-71
2022/12/23 20:11:05;;;;;;;1.92;0.40;;;15.00;99.90;;;;;;10128447;28;20026;-65
2022/12/23 20:15:56;;;;;;;0.90;0.60;;;14.90;99.90;;;;;;10142609;28;20541;-60
2022/12/23 20:20:47;;;;;;;1.95;0.93;;;14.90;99.90;;;;;;10140452;28;20028;-61
2022/12/23 20:25:37;;;;;;;0.40;0.40;;;14.90;99.90;;;;;;10140127;28;20036;-71
2022/12/23 20:30:28;;;;;;;1.48;0.60;;;15.00;99.90;;;;;;10139037;28;20421;-70
2022/12/23 20:35:19;;;;;;;1.85;0.88;;;15.00;99.90;;;;;;10141657;28;20038;-66
2022/12/23 20:40:11;;;;;;;1.48;0.70;;;15.10;99.90;;;;;;10141540;28;20013;-61
2022/12/23 20:45:02;;;;;;;1.10;0.73;;;15.10;99.90;;;;;;10138336;28;20560;-68
2022/12/23 20:49:53;;;;;;;2.38;0.80;;;15.10;99.90;;;;;;10141531;28;20028;-61
2022/12/23 20:54:44;;;;;;;1.45;0.60;;;15.00;99.90;;;;;;10141022;28;20035;-62
2022/12/23 20:59:35;;;;;;;9.35;1.30;;;15.00;99.90;;;;;;10136024;28;20318;-58
2022/12/23 21:04:26;;;;;;;1.73;1.10;;;14.90;99.90;;;;;;10140079;28;20043;-59
2022/12/23 21:09:17;;;;;;;3.00;0.80;;;14.80;99.90;;;;;;10124901;28;20024;-70
2022/12/23 21:14:07;;;;;;;2.25;1.10;;;14.80;99.90;;;;;;10130803;28;20032;-63
2022/12/23 21:18:59;;;;;;;5.30;0.93;;;14.90;99.90;;;;;;10139743;28;20074;-65
2022/12/23 21:23:49;;;;;;;6.38;1.20;;;14.90;99.90;;;;;;10136488;28;20406;-66
2022/12/23 21:28:42;;;;;;;4.90;2.03;;;14.90;99.90;;;;;;10137640;28;20107;-60
2022/12/23 21:33:41;;;;;;;3.47;1.25;;;14.90;99.90;;;;;;10138940;28;20119;-66
2022/12/23 21:38:34;;;;;;;3.13;1.33;;;14.90;99.90;;;;;;10138607;28;20020;-56
2022/12/23 21:43:25;;;;;;;3.88;0.95;;;14.90;99.90;;;;;;10141787;28;20401;-60
2022/12/23 21:48:18;;;;;;;7.38;1.95;;;14.80;99.90;;;;;;10137288;28;20028;-66
2022/12/23 21:53:09;;;;;;;3.20;1.10;;;14.80;99.90;;;;;;10136486;28;20028;-64
2022/12/23 21:58:03;;;;;;;2.22;1.40;;;14.90;99.90;;;;;;10138223;28;20029;-67
2022/12/23 22:02:53;;;;;;;9.38;1.50;;;14.90;99.90;;;;;;10137866;28;20048;-65
2022/12/23 22:07:44;;;;;;;4.35;1.58;;;14.90;99.90;;;;;;10132106;28;20349;-64
2022/12/23 22:12:34;;;;;;;2.65;1.00;;;14.90;99.90;;;;;;10128006;28;20151;-61
2022/12/23 22:17:25;;;;;;;4.80;1.77;;;15.00;99.90;;;;;;10137422;28;20107;-64
2022/12/23 22:22:16;;;;;;;3.10;0.93;;;14.90;99.90;;;;;;10135023;28;20124;-59
2022/12/23 22:27:10;;;;;;;2.65;1.10;;;14.90;99.90;;;;;;10136822;28;20119;-60
2022/12/23 22:32:01;;;;;;;4.53;1.10;;;14.80;99.90;;;;;;10135692;28;20028;-63
2022/12/23 22:36:51;;;;;;;4.43;1.50;;;14.80;99.90;;;;;;10132240;28;20028;-70
2022/12/23 22:41:42;;;;;;;2.88;1.00;;;14.70;99.90;;;;;;10134599;28;20070;-62
2022/12/23 22:46:33;;;;;;;5.28;1.15;;;14.80;99.90;;;;;;10134989;28;20589;-64
2022/12/23 22:51:26;;;;;;;5.95;1.77;;;14.70;99.90;;;;;;10131109;28;20027;-61
2022/12/23 22:56:19;;;;;;;5.47;1.50;;;14.60;99.90;;;;;;10136001;28;20761;-61
2022/12/23 23:01:19;;;;;;;4.00;1.17;;;14.70;99.90;;;;;;10135471;28;20045;-55
2022/12/23 23:06:10;;;;;;;3.63;0.85;;;14.70;99.90;;;;;;10135648;28;20103;-57
2022/12/23 23:11:03;;;;;;;4.35;1.25;;;14.60;99.90;;;;;;10121990;28;20028;-59
2022/12/23 23:15:54;;;;;;;5.63;2.38;;;14.60;99.90;;;;;;10135957;28;20335;-60
2022/12/23 23:20:45;;;;;;;8.60;1.38;;;14.50;99.90;;;;;;10127116;28;20037;-59
2022/12/23 23:25:36;;;;;;;6.20;1.30;;;14.50;99.90;;;;;;10135292;28;20111;-57
2022/12/23 23:30:27;;;;;;;2.83;1.55;;;14.50;99.90;;;;;;10132157;28;20031;-57
2022/12/23 23:35:17;;;;;;;3.35;1.20;;;14.50;99.90;;;;;;10129843;28;20052;-63
2022/12/23 23:40:08;;;;;;;4.45;1.75;;;14.50;99.90;;;;;;10134708;28;20082;-68
2022/12/23 23:44:59;;;;;;;4.55;1.13;;;14.50;99.90;;;;;;10135559;28;20083;-66
2022/12/23 23:49:49;;;;;;;4.70;1.50;;;14.60;99.90;;;;;;10135328;28;20079;-57
2022/12/23 23:54:40;;;;;;;3.67;1.25;;;14.50;99.90;;;;;;10135765;28;20035;-62
2022/12/23 23:59:31;;;;;;;2.55;1.20;;;14.40;99.90;;;;;;10134743;28;20048;-68
